Madeline — WDF2406 — position and weather

sailwx.info

Track history (hours):
 
Tides and Currents Weather Stations Pressure Air Temp Water Temp Dewpoint Dewpoint Depression Visibility Wind Speed Wind Dir Waves Ship Positions

Madeline

Owner: Enterprise Marine Services, LLC, San Antonio, TX. More information available from US FCC via Universal Licensing System and Coast Guard Vessel Documentation Center.

Last reported at 2017-Feb-22 01:29 UTC. Time now 2017-Feb-27 16:05 UTC.
Position N 29°57' W 090°23'.

; draft 3 m.

Type: Ship (hazmat cat B). MMSI: 367350460.

Date/timePositionNaut miles runAvg speedWind from/ knotsBaromVisibWave heightAir tempDewpointWater temp
2017-Feb-22 01:29N 29°57' W 090°23'  
2017-Feb-19 14:16N 29°37' W 090°21'0 0.0
2017-Feb-19 13:20N 29°37' W 090°21'0 0.0
2017-Feb-19 12:20N 29°37' W 090°21'6 1.4
2017-Feb-19 08:21N 29°33' W 090°26'3 1.3
2017-Feb-19 06:30N 29°34' W 090°28'4 4.2
2017-Feb-19 05:32N 29°34' W 090°33'4 3.9
2017-Feb-19 04:33N 29°35' W 090°37'3 3.3
2017-Feb-19 03:33N 29°36' W 090°41'2 1.8
2017-Feb-19 02:33N 29°36' W 090°43'2 2.2
2017-Feb-19 01:33N 29°34' W 090°44'4 3.9
2017-Feb-19 00:33N 29°32' W 090°48'61 3.1
2017-Feb-18 04:33N 29°51' W 091°55'5 4.7
2017-Feb-18 03:33N 29°50' W 092°00'5 5.4
2017-Feb-18 02:33N 29°48' W 092°06'4 4.5
2017-Feb-18 01:33N 29°47' W 092°11'2 2.1
2017-Feb-18 00:33N 29°48' W 092°13'1 1.0
2017-Feb-17 23:33N 29°48' W 092°15'2 1.6
2017-Feb-17 22:33N 29°49' W 092°16'3 3.3
2017-Feb-17 21:33N 29°50' W 092°19'3 3.0
2017-Feb-17 20:30N 29°52' W 092°22'4 4.1
2017-Feb-17 19:32N 29°54' W 092°27'31 4.1
2017-Feb-17 12:03N 29°56' W 093°02'2 4.1
2017-Feb-17 11:33N 29°56' W 093°05'3 3.2
2017-Feb-17 10:33N 29°56' W 093°08'3 3.1
2017-Feb-17 09:33N 29°58' W 093°11'3 3.4
2017-Feb-17 08:33N 30°01' W 093°14'3 2.7
2017-Feb-17 07:33N 30°03' W 093°16'3 2.9
2017-Feb-17 06:33N 30°05' W 093°17'1 1.2
2017-Feb-17 05:33N 30°06' W 093°18'2 1.9
2017-Feb-17 04:33N 30°05' W 093°20'2 2.4
2017-Feb-17 03:33N 30°04' W 093°22'5 4.6
2017-Feb-17 02:33N 30°04' W 093°28'6 5.0
2017-Feb-17 01:16N 30°04' W 093°35'75 3.7
2017-Feb-16 05:12N 29°32' W 094°53'4 6.4
2017-Feb-16 04:34N 29°35' W 094°56'7 6.6
2017-Feb-16 03:34N 29°41' W 094°59'6 5.5
2017-Feb-16 02:25N 29°46' W 095°04'2 0.6
2017-Feb-15 23:17N 29°47' W 095°04'1 0.3
2017-Feb-15 21:20N 29°47' W 095°05'0 0.0
2017-Feb-15 20:19N 29°47' W 095°05'0 0.0
2017-Feb-15 19:30N 29°47' W 095°05'0 0.0
2017-Feb-15 18:08N 29°47' W 095°05'0 0.0
2017-Feb-15 15:21N 29°47' W 095°05'0 0.0
2017-Feb-15 13:32N 29°47' W 095°05'0 0.0
2017-Feb-14 22:23N 29°47' W 095°05'1 0.5
2017-Feb-14 21:19N 29°47' W 095°05'1 0.7
2017-Feb-14 20:30N 29°47' W 095°05'0 0.1
2017-Feb-14 19:28N 29°47' W 095°05'0 0.1
2017-Feb-14 18:33N 29°47' W 095°05'0 0.1
2017-Feb-14 17:26N 29°47' W 095°05'1 1.0
2017-Feb-14 16:34N 29°46' W 095°05'0 0.0
2017-Feb-14 13:33N 29°46' W 095°05'1 0.1
2017-Feb-14 04:29N 29°46' W 095°05'  
Track history (hours):
 
Tides and Currents Weather Stations Pressure Air Temp Water Temp Dewpoint Dewpoint Depression Visibility Wind Speed Wind Dir Waves Ship Positions

Madeline

Owner: Enterprise Marine Services, LLC, San Antonio, TX. More information available from US FCC via Universal Licensing System and Coast Guard Vessel Documentation Center.

Last reported at 2017-Feb-22 01:29 UTC. Time now 2017-Feb-27 16:05 UTC.
Position N 29°57' W 090°23'.

; draft 3 m.

Type: Ship (hazmat cat B). MMSI: 367350460.

Date/timePositionNaut miles runAvg speedWind from/ knotsBaromVisibWave heightAir tempDewpointWater temp
2017-Feb-22 01:29N 29°57' W 090°23'  
2017-Feb-19 14:16N 29°37' W 090°21'0 0.0
2017-Feb-19 13:20N 29°37' W 090°21'0 0.0
2017-Feb-19 12:20N 29°37' W 090°21'6 1.4
2017-Feb-19 08:21N 29°33' W 090°26'3 1.3
2017-Feb-19 06:30N 29°34' W 090°28'4 4.2
2017-Feb-19 05:32N 29°34' W 090°33'4 3.9
2017-Feb-19 04:33N 29°35' W 090°37'3 3.3
2017-Feb-19 03:33N 29°36' W 090°41'2 1.8
2017-Feb-19 02:33N 29°36' W 090°43'2 2.2
2017-Feb-19 01:33N 29°34' W 090°44'4 3.9
2017-Feb-19 00:33N 29°32' W 090°48'61 3.1
2017-Feb-18 04:33N 29°51' W 091°55'5 4.7
2017-Feb-18 03:33N 29°50' W 092°00'5 5.4
2017-Feb-18 02:33N 29°48' W 092°06'4 4.5
2017-Feb-18 01:33N 29°47' W 092°11'2 2.1
2017-Feb-18 00:33N 29°48' W 092°13'1 1.0
2017-Feb-17 23:33N 29°48' W 092°15'2 1.6
2017-Feb-17 22:33N 29°49' W 092°16'3 3.3
2017-Feb-17 21:33N 29°50' W 092°19'3 3.0
2017-Feb-17 20:30N 29°52' W 092°22'4 4.1
2017-Feb-17 19:32N 29°54' W 092°27'31 4.1
2017-Feb-17 12:03N 29°56' W 093°02'2 4.1
2017-Feb-17 11:33N 29°56' W 093°05'3 3.2
2017-Feb-17 10:33N 29°56' W 093°08'3 3.1
2017-Feb-17 09:33N 29°58' W 093°11'3 3.4
2017-Feb-17 08:33N 30°01' W 093°14'3 2.7
2017-Feb-17 07:33N 30°03' W 093°16'3 2.9
2017-Feb-17 06:33N 30°05' W 093°17'1 1.2
2017-Feb-17 05:33N 30°06' W 093°18'2 1.9
2017-Feb-17 04:33N 30°05' W 093°20'2 2.4
2017-Feb-17 03:33N 30°04' W 093°22'5 4.6
2017-Feb-17 02:33N 30°04' W 093°28'6 5.0
2017-Feb-17 01:16N 30°04' W 093°35'75 3.7
2017-Feb-16 05:12N 29°32' W 094°53'4 6.4
2017-Feb-16 04:34N 29°35' W 094°56'7 6.6
2017-Feb-16 03:34N 29°41' W 094°59'6 5.5
2017-Feb-16 02:25N 29°46' W 095°04'2 0.6
2017-Feb-15 23:17N 29°47' W 095°04'1 0.3
2017-Feb-15 21:20N 29°47' W 095°05'0 0.0
2017-Feb-15 20:19N 29°47' W 095°05'0 0.0
2017-Feb-15 19:30N 29°47' W 095°05'0 0.0
2017-Feb-15 18:08N 29°47' W 095°05'0 0.0
2017-Feb-15 15:21N 29°47' W 095°05'0 0.0
2017-Feb-15 13:32N 29°47' W 095°05'0 0.0
2017-Feb-14 22:23N 29°47' W 095°05'1 0.5
2017-Feb-14 21:19N 29°47' W 095°05'1 0.7
2017-Feb-14 20:30N 29°47' W 095°05'0 0.1
2017-Feb-14 19:28N 29°47' W 095°05'0 0.1
2017-Feb-14 18:33N 29°47' W 095°05'0 0.1
2017-Feb-14 17:26N 29°47' W 095°05'1 1.0
2017-Feb-14 16:34N 29°46' W 095°05'0 0.0
2017-Feb-14 13:33N 29°46' W 095°05'1 0.1
2017-Feb-14 04:29N 29°46' W 095°05'  

Dump ship's entire track history